Time;durP1;ratioP1;P1;durP2;ratioP2;P2;SDS_P1;SDS_P2;PMS_P1;PMS_P2;Temp;Humidity;BMP_temperature;BMP_pressure;BME280_temperature;BME280_humidity;BME280_pressure;Samples;Min_cycle;Max_cycle;Signal;HPM_P1;HPM_P2
2023/06/13 00:01:48;;;;;;;1.13;1.10;;;15.70;76.80;;;;;;5060839;28;20122;-77
2023/06/13 00:04:21;;;;;;;1.60;1.50;;;15.70;76.10;;;;;;5061843;28;20091;-77
2023/06/13 00:06:48;;;;;;;1.85;1.75;;;15.60;76.40;;;;;;5066242;28;20536;-76
2023/06/13 00:09:13;;;;;;;1.55;1.48;;;15.60;77.80;;;;;;5064753;28;20033;-77
2023/06/13 00:11:39;;;;;;;1.77;1.67;;;15.50;78.40;;;;;;5053412;28;20408;-77
2023/06/13 00:14:05;;;;;;;2.63;2.45;;;15.50;78.80;;;;;;5062306;28;20048;-77
2023/06/13 00:16:31;;;;;;;1.20;1.20;;;15.50;79.30;;;;;;5070057;28;20264;-77
2023/06/13 00:18:57;;;;;;;2.60;2.38;;;15.40;78.50;;;;;;5068545;28;20052;-77
2023/06/13 00:21:24;;;;;;;5.28;1.73;;;15.40;79.90;;;;;;5066263;28;20041;-77
2023/06/13 00:23:50;;;;;;;5.47;2.63;;;15.40;79.60;;;;;;5064953;28;20064;-77
2023/06/13 00:26:16;;;;;;;1.65;1.55;;;15.40;79.70;;;;;;5068067;28;20421;-77
2023/06/13 00:28:41;;;;;;;0.90;0.90;;;15.40;78.70;;;;;;5065045;28;20067;-77
2023/06/13 00:31:07;;;;;;;1.52;1.17;;;15.40;79.70;;;;;;5066821;28;20482;-77
2023/06/13 00:33:33;;;;;;;0.95;0.95;;;15.40;79.70;;;;;;5060948;28;20040;-77
2023/06/13 00:35:59;;;;;;;1.20;1.10;;;15.40;79.40;;;;;;5062294;28;20099;-77
2023/06/13 00:38:28;;;;;;;0.95;0.95;;;15.40;79.60;;;;;;5061126;28;20048;-77
2023/06/13 00:40:55;;;;;;;0.73;0.73;;;15.40;80.30;;;;;;5058912;28;20048;-77
2023/06/13 00:43:21;;;;;;;0.80;0.80;;;15.30;81.40;;;;;;5064375;28;20080;-77
2023/06/13 00:45:46;;;;;;;0.73;0.73;;;15.40;80.90;;;;;;5060389;28;20087;-77
2023/06/13 00:48:13;;;;;;;0.40;0.40;;;15.30;81.40;;;;;;5063208;28;20072;-77
2023/06/13 00:50:45;;;;;;;0.40;0.40;;;15.30;81.90;;;;;;5063601;28;20067;-77
2023/06/13 00:53:19;;;;;;;4.38;1.17;;;15.30;82.20;;;;;;5066366;28;20119;-77
2023/06/13 00:55:46;;;;;;;0.40;0.40;;;15.30;82.20;;;;;;5058339;28;20053;-77
2023/06/13 00:58:13;;;;;;;0.40;0.40;;;15.20;82.10;;;;;;5069187;28;20040;-77
2023/06/13 01:00:40;;;;;;;0.40;0.40;;;15.20;82.40;;;;;;5069892;28;20052;-77
2023/06/13 01:03:09;;;;;;;0.45;0.45;;;15.20;82.40;;;;;;5065521;28;20045;-77
2023/06/13 01:05:38;;;;;;;0.50;0.50;;;15.10;83.20;;;;;;5061655;28;20055;-77
2023/06/13 01:08:09;;;;;;;0.50;0.50;;;15.10;83.40;;;;;;5066260;28;20454;-77
2023/06/13 01:10:40;;;;;;;0.40;0.40;;;15.00;83.50;;;;;;5064860;28;20816;-77
2023/06/13 01:13:28;;;;;;;0.20;0.20;;;15.10;83.30;;;;;;5062933;28;20037;-77
2023/06/13 01:16:21;;;;;;;0.70;0.40;;;15.00;83.60;;;;;;5059778;28;20413;-77
2023/06/13 01:18:51;;;;;;;1.70;1.15;;;15.00;82.90;;;;;;5057826;28;20059;-77
2023/06/13 01:21:18;;;;;;;0.35;0.35;;;15.00;82.20;;;;;;5056179;28;20049;-77
2023/06/13 01:24:07;;;;;;;0.50;0.50;;;15.00;81.60;;;;;;5062733;28;20884;-77
2023/06/13 01:26:45;;;;;;;0.25;0.25;;;15.00;81.20;;;;;;5061443;28;20186;-77
2023/06/13 01:29:11;;;;;;;;;;;15.00;80.90;;;;;;5063886;28;20052;-77
2023/06/13 01:31:38;;;;;;;0.50;0.50;;;15.00;81.00;;;;;;5061141;28;19982;-77
2023/06/13 01:34:04;;;;;;;0.82;0.82;;;14.90;81.20;;;;;;5070276;28;20048;-77
2023/06/13 01:36:30;;;;;;;0.20;0.20;;;14.90;81.40;;;;;;5068123;28;20433;-77
2023/06/13 01:38:56;;;;;;;0.52;0.52;;;14.80;81.30;;;;;;5060634;28;20044;-77
2023/06/13 01:41:22;;;;;;;0.73;0.73;;;14.80;81.10;;;;;;5063755;28;20083;-77
2023/06/13 01:43:47;;;;;;;0.20;0.20;;;14.70;81.20;;;;;;5064068;28;20045;-77
2023/06/13 01:46:24;;;;;;;0.60;0.60;;;14.60;81.30;;;;;;5068218;28;20037;-77
2023/06/13 01:49:17;;;;;;;0.65;0.65;;;14.50;81.00;;;;;;5065791;28;20137;-77
2023/06/13 01:51:48;;;;;;;0.20;0.20;;;14.50;81.10;;;;;;5067379;28;20044;-76
2023/06/13 01:54:20;;;;;;;0.45;0.30;;;14.50;81.30;;;;;;5047036;28;20048;-77
2023/06/13 01:56:56;;;;;;;0.40;0.40;;;14.40;81.10;;;;;;5062576;28;20106;-77
2023/06/13 01:59:25;;;;;;;0.88;0.45;;;14.40;81.80;;;;;;5062893;28;20040;-77
2023/06/13 02:01:53;;;;;;;0.30;0.30;;;14.40;82.20;;;;;;5062305;28;20095;-77
2023/06/13 02:04:19;;;;;;;;;;;14.50;82.20;;;;;;5067177;28;20036;-77
2023/06/13 02:06:45;;;;;;;0.30;0.30;;;14.50;82.40;;;;;;5067421;28;19974;-77
2023/06/13 02:09:11;;;;;;;0.35;0.35;;;14.50;82.90;;;;;;5067872;28;20047;-77
2023/06/13 02:11:37;;;;;;;0.47;0.47;;;14.40;82.90;;;;;;5064701;28;20044;-77
2023/06/13 02:14:02;;;;;;;0.30;0.30;;;14.40;82.90;;;;;;5058338;28;20082;-77
2023/06/13 02:16:30;;;;;;;1.08;0.80;;;14.30;83.00;;;;;;5067295;28;20046;-77
2023/06/13 02:18:59;;;;;;;0.28;0.28;;;14.30;83.10;;;;;;5058515;28;20052;-77
2023/06/13 02:21:25;;;;;;;0.43;0.40;;;14.20;83.10;;;;;;5066779;28;20814;-77
2023/06/13 02:23:51;;;;;;;0.30;0.30;;;14.20;83.10;;;;;;5059455;28;20040;-77
2023/06/13 02:26:17;;;;;;;0.80;0.80;;;14.20;83.30;;;;;;5067841;28;20071;-77
2023/06/13 02:28:42;;;;;;;0.30;0.30;;;14.20;83.30;;;;;;5063806;28;20053;-77
2023/06/13 02:31:08;;;;;;;0.30;0.30;;;14.10;83.70;;;;;;5062028;28;20037;-77
2023/06/13 02:33:36;;;;;;;0.30;0.30;;;14.20;83.90;;;;;;5065243;28;20058;-77
2023/06/13 02:36:02;;;;;;;0.60;0.60;;;14.10;84.90;;;;;;5062430;28;20040;-77
2023/06/13 02:38:28;;;;;;;0.75;0.75;;;14.10;84.80;;;;;;5063828;28;20086;-77
2023/06/13 02:40:54;;;;;;;0.35;0.35;;;14.10;85.70;;;;;;5068414;28;20044;-77
2023/06/13 02:43:20;;;;;;;0.32;0.32;;;14.10;87.20;;;;;;5050291;28;20043;-77
2023/06/13 02:45:47;;;;;;;1.17;1.02;;;14.00;86.70;;;;;;5065588;28;20152;-77
2023/06/13 02:48:13;;;;;;;0.30;0.30;;;14.00;86.70;;;;;;5066464;28;20041;-77
2023/06/13 02:50:38;;;;;;;0.57;0.57;;;14.00;87.20;;;;;;5059020;28;20048;-77
2023/06/13 02:53:05;;;;;;;0.30;0.30;;;14.00;87.40;;;;;;5067285;28;20098;-76
2023/06/13 02:55:30;;;;;;;0.90;0.80;;;13.90;89.00;;;;;;5054238;28;20057;-75
2023/06/13 02:57:56;;;;;;;1.10;0.88;;;13.90;89.50;;;;;;5063952;28;20049;-74
2023/06/13 03:00:24;;;;;;;0.55;0.55;;;13.80;88.50;;;;;;5060074;28;20055;-74
2023/06/13 03:02:49;;;;;;;1.00;1.00;;;13.80;88.90;;;;;;5063013;28;20045;-74
2023/06/13 03:05:15;;;;;;;0.30;0.30;;;13.80;88.90;;;;;;5066524;28;20045;-74
2023/06/13 03:07:48;;;;;;;0.50;0.50;;;13.70;88.90;;;;;;5061719;28;20072;-76
2023/06/13 03:10:15;;;;;;;0.20;0.20;;;13.70;88.90;;;;;;5061656;28;20066;-76
2023/06/13 03:12:41;;;;;;;0.97;0.87;;;13.70;89.40;;;;;;5061654;28;20078;-76
2023/06/13 03:15:07;;;;;;;1.50;0.70;;;13.70;89.50;;;;;;5058884;28;20387;-76
2023/06/13 03:17:33;;;;;;;0.45;0.45;;;13.80;89.40;;;;;;5056306;28;20667;-76
2023/06/13 03:19:59;;;;;;;0.50;0.50;;;13.80;89.50;;;;;;5059272;28;20055;-78
2023/06/13 03:22:25;;;;;;;3.50;0.80;;;13.80;90.50;;;;;;5067467;28;20083;-77
2023/06/13 03:24:52;;;;;;;0.30;0.30;;;13.70;90.30;;;;;;5068028;28;20558;-77
2023/06/13 03:27:18;;;;;;;0.63;0.63;;;13.60;90.70;;;;;;5073847;28;20062;-78
2023/06/13 03:29:47;;;;;;;0.52;0.52;;;13.60;91.10;;;;;;5058945;28;20044;-77
2023/06/13 03:32:12;;;;;;;0.30;0.30;;;13.50;92.00;;;;;;5055856;28;20052;-77
2023/06/13 03:34:39;;;;;;;0.60;0.60;;;13.40;91.90;;;;;;5058684;28;20044;-77
2023/06/13 03:37:06;;;;;;;0.63;0.63;;;13.40;92.20;;;;;;5061561;28;20390;-76
2023/06/13 03:39:32;;;;;;;0.85;0.85;;;13.40;92.70;;;;;;5058283;28;20056;-77
2023/06/13 03:41:58;;;;;;;0.40;0.40;;;13.40;92.50;;;;;;5069518;28;20041;-77
2023/06/13 03:44:25;;;;;;;0.82;0.60;;;13.40;93.10;;;;;;5059819;28;20047;-77
2023/06/13 03:46:51;;;;;;;1.05;1.05;;;13.50;93.00;;;;;;5067287;28;20406;-77
2023/06/13 03:49:18;;;;;;;0.43;0.43;;;13.50;93.10;;;;;;5064370;28;20082;-77
2023/06/13 03:51:44;;;;;;;0.35;0.35;;;13.50;93.00;;;;;;5063552;28;20048;-77
2023/06/13 03:54:10;;;;;;;0.50;0.50;;;13.50;92.80;;;;;;5065383;28;20043;-77
2023/06/13 03:56:36;;;;;;;3.88;1.42;;;13.60;92.70;;;;;;5069768;28;20052;-77
2023/06/13 03:59:02;;;;;;;0.93;0.93;;;13.70;92.40;;;;;;5065706;28;20406;-77
2023/06/13 04:01:28;;;;;;;0.95;0.82;;;13.70;92.60;;;;;;5068301;28;20049;-77
2023/06/13 04:03:54;;;;;;;0.32;0.32;;;13.70;92.50;;;;;;5070264;28;20109;-76
2023/06/13 04:06:20;;;;;;;0.50;0.50;;;13.70;92.90;;;;;;5065463;28;20051;-77
2023/06/13 04:08:46;;;;;;;1.85;1.17;;;13.70;92.50;;;;;;5066318;28;20056;-77
2023/06/13 04:11:12;;;;;;;0.75;0.75;;;13.80;92.90;;;;;;5065353;28;20135;-77
2023/06/13 04:13:37;;;;;;;1.48;1.38;;;13.80;92.60;;;;;;5070472;28;20047;-76
2023/06/13 04:16:03;;;;;;;0.50;0.50;;;13.80;93.10;;;;;;5066014;28;20120;-76
2023/06/13 04:18:29;;;;;;;1.00;0.82;;;13.90;93.30;;;;;;5066787;28;20060;-77
2023/06/13 04:20:56;;;;;;;0.45;0.45;;;13.90;93.20;;;;;;5064517;28;20408;-77
2023/06/13 04:23:25;;;;;;;0.40;0.40;;;14.00;93.00;;;;;;5065154;28;20046;-77
2023/06/13 04:25:51;;;;;;;0.38;0.38;;;14.00;93.30;;;;;;5059167;28;20051;-77
2023/06/13 04:28:17;;;;;;;0.63;0.63;;;14.10;93.10;;;;;;5060975;28;20119;-77
2023/06/13 04:30:46;;;;;;;0.35;0.35;;;14.10;94.20;;;;;;5063863;28;20415;-77
2023/06/13 04:33:17;;;;;;;1.17;1.13;;;14.10;94.30;;;;;;5070959;28;20041;-77
2023/06/13 04:35:48;;;;;;;0.60;0.60;;;14.10;94.00;;;;;;5067883;28;20044;-77
2023/06/13 04:38:21;;;;;;;0.40;0.40;;;14.20;95.10;;;;;;5069546;28;20044;-77
2023/06/13 04:40:50;;;;;;;0.63;0.63;;;14.30;94.50;;;;;;5064308;28;20048;-78
2023/06/13 04:43:16;;;;;;;1.50;1.20;;;14.30;94.70;;;;;;5069226;28;20047;-76
2023/06/13 04:45:43;;;;;;;1.02;0.68;;;14.40;94.10;;;;;;5064871;28;20040;-80
2023/06/13 04:48:10;;;;;;;1.17;1.17;;;14.50;94.00;;;;;;5065878;28;20048;-76
2023/06/13 04:50:37;;;;;;;0.75;0.75;;;14.60;94.50;;;;;;5066391;28;20321;-76
2023/06/13 04:53:07;;;;;;;0.70;0.70;;;14.70;94.70;;;;;;5068688;28;20123;-76
2023/06/13 04:55:35;;;;;;;0.60;0.60;;;14.70;94.10;;;;;;5068678;28;20075;-77
2023/06/13 04:58:01;;;;;;;1.77;1.55;;;14.80;94.60;;;;;;5064660;28;20393;-76
2023/06/13 05:00:28;;;;;;;1.52;1.02;;;14.90;93.70;;;;;;5060903;28;20080;-77
2023/06/13 05:02:55;;;;;;;2.25;1.70;;;15.10;93.90;;;;;;5060786;28;20052;-77
2023/06/13 05:05:22;;;;;;;2.63;2.43;;;15.20;92.40;;;;;;5057523;28;20068;-77
2023/06/13 05:07:49;;;;;;;2.03;1.83;;;15.30;91.20;;;;;;5064857;28;20040;-78
2023/06/13 05:10:15;;;;;;;2.05;1.88;;;15.40;91.00;;;;;;5064176;28;20056;-77
2023/06/13 05:12:41;;;;;;;3.17;2.97;;;15.50;91.10;;;;;;5067527;28;20093;-77
2023/06/13 05:15:07;;;;;;;1.95;1.83;;;15.60;90.40;;;;;;5067624;28;20110;-77
2023/06/13 05:17:33;;;;;;;8.45;3.08;;;15.60;90.50;;;;;;5066380;28;20051;-78
2023/06/13 05:19:59;;;;;;;2.25;2.15;;;15.70;90.50;;;;;;5065618;28;20044;-78
2023/06/13 05:22:25;;;;;;;2.78;2.58;;;15.80;89.80;;;;;;5062374;28;20494;-78
2023/06/13 05:24:50;;;;;;;3.08;2.88;;;15.90;89.30;;;;;;5064435;28;20052;-78
2023/06/13 05:27:16;;;;;;;4.47;3.08;;;16.00;89.80;;;;;;5050773;28;20058;-78
2023/06/13 05:29:42;;;;;;;3.60;3.13;;;16.10;89.00;;;;;;5068910;28;20059;-78
2023/06/13 05:32:08;;;;;;;3.53;3.22;;;16.10;88.90;;;;;;5067052;28;20075;-78
2023/06/13 05:34:34;;;;;;;3.33;3.03;;;16.20;88.20;;;;;;5066897;28;20521;-78
2023/06/13 05:37:00;;;;;;;2.75;2.55;;;16.30;86.30;;;;;;5064242;28;20048;-78
2023/06/13 05:39:26;;;;;;;2.75;2.22;;;16.30;85.90;;;;;;5065224;28;20641;-78
2023/06/13 05:41:52;;;;;;;3.90;3.60;;;16.40;86.20;;;;;;5067818;28;20119;-79
2023/06/13 05:44:17;;;;;;;2.22;2.05;;;16.50;85.10;;;;;;5066660;28;20048;-79
2023/06/13 05:46:43;;;;;;;3.88;2.58;;;16.60;84.50;;;;;;5067809;28;20044;-79
2023/06/13 05:49:08;;;;;;;1.73;1.63;;;16.70;84.70;;;;;;5066343;28;20417;-79
2023/06/13 05:51:34;;;;;;;6.43;3.85;;;16.90;82.90;;;;;;5062497;28;20049;-79
2023/06/13 05:54:00;;;;;;;3.88;3.42;;;16.90;82.60;;;;;;5058461;28;20090;-78
2023/06/13 05:56:26;;;;;;;3.53;3.22;;;17.10;82.50;;;;;;5058683;28;20280;-77
2023/06/13 05:58:52;;;;;;;3.15;2.42;;;17.10;82.10;;;;;;5066376;28;20040;-79
2023/06/13 06:01:21;;;;;;;2.30;2.20;;;17.30;80.70;;;;;;5059774;28;20053;-83
2023/06/13 06:03:46;;;;;;;1.50;1.30;;;17.30;81.10;;;;;;5054797;28;20046;-79
2023/06/13 06:06:13;;;;;;;3.05;2.30;;;17.40;80.60;;;;;;5064684;28;20389;-79
2023/06/13 06:08:38;;;;;;;3.40;2.97;;;17.50;80.90;;;;;;5059288;28;20056;-79
2023/06/13 06:11:05;;;;;;;2.25;2.05;;;17.60;79.80;;;;;;5058116;28;20098;-77
2023/06/13 06:13:31;;;;;;;2.90;2.67;;;17.70;78.60;;;;;;5067499;28;20513;-79
2023/06/13 06:15:56;;;;;;;4.57;4.15;;;17.80;78.30;;;;;;5067090;28;20102;-79
2023/06/13 06:18:22;;;;;;;5.57;1.63;;;17.80;76.80;;;;;;5056353;28;20037;-79
2023/06/13 06:20:48;;;;;;;3.65;3.10;;;17.80;74.80;;;;;;5059005;28;20042;-78
2023/06/13 06:23:14;;;;;;;3.22;3.00;;;17.90;74.30;;;;;;5067613;28;20060;-79
2023/06/13 06:25:41;;;;;;;3.30;3.03;;;18.00;73.80;;;;;;5062181;28;20057;-79
2023/06/13 06:28:08;;;;;;;8.02;3.45;;;18.10;74.70;;;;;;5068351;28;20693;-79
2023/06/13 06:30:35;;;;;;;2.63;2.08;;;18.20;73.70;;;;;;5062113;28;20055;-78
2023/06/13 06:33:01;;;;;;;1.90;1.65;;;18.40;71.80;;;;;;5065933;28;20394;-79
2023/06/13 06:35:27;;;;;;;3.80;3.05;;;18.50;73.10;;;;;;5060332;28;20052;-77
2023/06/13 06:37:52;;;;;;;2.45;2.33;;;18.60;72.90;;;;;;5061255;28;20143;-76
2023/06/13 06:40:18;;;;;;;3.88;3.00;;;18.80;70.70;;;;;;5066569;28;20044;-76
2023/06/13 06:42:44;;;;;;;5.38;2.50;;;19.00;70.10;;;;;;5066057;28;20053;-76
2023/06/13 06:45:10;;;;;;;1.52;1.42;;;19.20;71.50;;;;;;5066561;28;20071;-77
2023/06/13 06:47:36;;;;;;;4.90;3.28;;;19.40;69.50;;;;;;5067196;28;20544;-76
2023/06/13 06:50:02;;;;;;;1.67;1.58;;;19.70;69.90;;;;;;5067335;28;20045;-76
2023/06/13 06:52:28;;;;;;;3.85;3.30;;;19.90;69.50;;;;;;5059851;28;20044;-76
2023/06/13 06:54:54;;;;;;;0.70;0.70;;;20.20;68.30;;;;;;5065464;28;20624;-77
2023/06/13 06:57:19;;;;;;;1.73;1.38;;;20.40;70.40;;;;;;5063741;28;20116;-77
2023/06/13 06:59:45;;;;;;;3.25;2.60;;;20.60;67.80;;;;;;5069248;28;20032;-77
2023/06/13 07:02:11;;;;;;;3.75;3.40;;;20.70;67.40;;;;;;5065489;28;20048;-78
2023/06/13 07:04:36;;;;;;;2.53;2.33;;;20.90;66.20;;;;;;5067315;28;20048;-77
2023/06/13 07:07:02;;;;;;;2.42;1.35;;;21.00;64.90;;;;;;5066014;28;20480;-76
2023/06/13 07:09:28;;;;;;;2.85;1.95;;;21.20;67.10;;;;;;5062806;28;20049;-76
2023/06/13 07:11:57;;;;;;;2.85;2.03;;;21.40;66.30;;;;;;5052446;28;20120;-76
2023/06/13 07:14:24;;;;;;;3.50;2.40;;;21.60;66.00;;;;;;5061425;28;20541;-76
2023/06/13 07:16:50;;;;;;;2.90;2.35;;;21.80;64.30;;;;;;5065121;28;20056;-76
2023/06/13 07:19:16;;;;;;;2.28;2.08;;;22.00;65.00;;;;;;5069358;28;20040;-76
2023/06/13 07:21:41;;;;;;;3.63;3.30;;;22.20;64.10;;;;;;5063354;28;20057;-76
2023/06/13 07:24:07;;;;;;;1.30;1.30;;;22.30;64.60;;;;;;5063713;28;20075;-77
2023/06/13 07:26:33;;;;;;;1.73;1.63;;;22.50;64.30;;;;;;5062709;28;20053;-76
2023/06/13 07:28:58;;;;;;;1.83;1.73;;;22.70;63.60;;;;;;5063080;28;20493;-78
2023/06/13 07:31:24;;;;;;;2.58;2.38;;;22.80;62.30;;;;;;5061064;28;20161;-77
2023/06/13 07:33:50;;;;;;;2.50;2.10;;;22.90;61.90;;;;;;5059257;28;20045;-77
2023/06/13 07:36:16;;;;;;;1.52;1.42;;;22.90;63.50;;;;;;5067434;28;20048;-78
2023/06/13 07:38:42;;;;;;;1.30;1.30;;;23.10;63.60;;;;;;5073327;28;20051;-78
2023/06/13 07:41:10;;;;;;;1.13;1.13;;;23.20;61.80;;;;;;5070175;28;20045;-78
2023/06/13 07:43:35;;;;;;;;;;;23.30;62.60;;;;;;5064438;28;20053;-78
2023/06/13 07:46:01;;;;;;;3.38;3.15;;;23.40;61.20;;;;;;5054607;28;20465;-77
2023/06/13 07:48:26;;;;;;;4.55;4.15;;;23.50;61.30;;;;;;5067482;28;20120;-79
2023/06/13 07:50:52;;;;;;;2.78;2.58;;;23.50;59.40;;;;;;5063687;28;20048;-78
2023/06/13 07:53:18;;;;;;;2.00;1.90;;;23.50;59.10;;;;;;5067704;28;20060;-78
2023/06/13 07:55:46;;;;;;;4.72;2.15;;;23.60;58.60;;;;;;5064608;28;20123;-77
2023/06/13 07:58:13;;;;;;;1.52;1.50;;;23.80;60.00;;;;;;5066256;28;20048;-79
2023/06/13 08:00:39;;;;;;;2.70;1.88;;;24.00;58.50;;;;;;5068028;28;20048;-79
2023/06/13 08:03:05;;;;;;;3.88;2.33;;;24.20;59.00;;;;;;5064129;28;20122;-82
2023/06/13 08:05:31;;;;;;;5.35;2.22;;;24.20;58.90;;;;;;5063855;28;20056;-81
2023/06/13 08:07:57;;;;;;;2.13;2.00;;;24.30;59.10;;;;;;5063310;28;20087;-81
2023/06/13 08:10:25;;;;;;;1.40;1.40;;;24.50;57.70;;;;;;5065512;28;20049;-80
2023/06/13 08:12:51;;;;;;;1.15;1.15;;;24.60;56.50;;;;;;5070911;28;20045;-81
2023/06/13 08:15:17;;;;;;;2.85;2.65;;;24.80;54.20;;;;;;5064751;28;20045;-78
2023/06/13 08:17:44;;;;;;;2.88;2.00;;;24.90;55.50;;;;;;5066197;28;20048;-78
2023/06/13 08:20:10;;;;;;;1.42;1.33;;;24.90;54.80;;;;;;5069772;28;20782;-81
2023/06/13 08:22:39;;;;;;;3.63;3.35;;;24.90;53.60;;;;;;5065288;28;20123;-79
2023/06/13 08:25:09;;;;;;;2.33;2.15;;;25.00;54.80;;;;;;5060690;28;20080;-79
2023/06/13 08:27:36;;;;;;;3.03;2.65;;;25.10;52.50;;;;;;5067506;28;20060;-81
2023/06/13 08:30:06;;;;;;;2.50;1.77;;;25.10;53.70;;;;;;5059310;28;20200;-78
2023/06/13 08:32:32;;;;;;;1.20;1.15;;;25.20;53.40;;;;;;5050980;28;20053;-79
2023/06/13 08:34:59;;;;;;;1.17;1.08;;;25.30;51.60;;;;;;5054162;28;20049;-80
2023/06/13 08:37:26;;;;;;;2.17;1.90;;;25.40;51.60;;;;;;5056739;28;20040;-78
2023/06/13 08:39:51;;;;;;;1.45;1.35;;;25.40;50.50;;;;;;5062826;28;20041;-78
2023/06/13 08:42:18;;;;;;;4.60;3.55;;;25.40;51.60;;;;;;5063270;28;20426;-79
2023/06/13 08:44:44;;;;;;;12.20;2.92;;;25.40;49.90;;;;;;5064377;28;20041;-79
2023/06/13 08:47:10;;;;;;;0.88;0.88;;;25.40;51.80;;;;;;5060725;28;20181;-77
2023/06/13 08:49:36;;;;;;;1.92;1.83;;;25.40;49.70;;;;;;5054354;28;20096;-80
2023/06/13 08:52:04;;;;;;;1.75;1.65;;;25.50;49.90;;;;;;5064294;28;20584;-78
2023/06/13 08:54:34;;;;;;;3.38;2.53;;;25.50;48.70;;;;;;5068553;28;20044;-78
2023/06/13 08:57:04;;;;;;;2.45;2.25;;;25.60;48.30;;;;;;5059960;28;20041;-78
2023/06/13 08:59:34;;;;;;;3.20;2.72;;;25.50;47.60;;;;;;5068692;28;20405;-78
2023/06/13 09:02:00;;;;;;;1.65;1.58;;;25.30;47.70;;;;;;5059595;28;20516;-76
2023/06/13 09:04:28;;;;;;;3.70;2.97;;;25.20;48.90;;;;;;5061839;28;20174;-78
2023/06/13 09:06:58;;;;;;;2.90;1.33;;;25.20;48.40;;;;;;5064844;28;20040;-77
2023/06/13 09:09:24;;;;;;;1.90;1.80;;;25.20;48.20;;;;;;5063884;28;20401;-78
2023/06/13 09:11:51;;;;;;;1.85;1.75;;;25.40;50.30;;;;;;5061010;28;20037;-78
2023/06/13 09:14:18;;;;;;;1.95;1.85;;;25.40;48.10;;;;;;5064304;28;20044;-79
2023/06/13 09:16:44;;;;;;;3.20;2.08;;;25.50;46.90;;;;;;5062652;28;20054;-79
2023/06/13 09:19:10;;;;;;;2.13;2.03;;;25.40;47.00;;;;;;5069477;28;20045;-79
2023/06/13 09:21:38;;;;;;;1.65;1.60;;;25.50;48.00;;;;;;5068548;28;20888;-78
2023/06/13 09:24:06;;;;;;;1.98;1.88;;;25.60;46.90;;;;;;5068754;28;20051;-79
2023/06/13 09:26:32;;;;;;;1.83;1.67;;;25.70;47.90;;;;;;5064392;28;20041;-77
2023/06/13 09:28:57;;;;;;;3.67;3.03;;;25.70;48.70;;;;;;5064852;28;20064;-78
2023/06/13 09:31:23;;;;;;;1.48;1.38;;;25.80;46.80;;;;;;5039072;28;20143;-83
2023/06/13 09:33:49;;;;;;;1.38;1.27;;;25.90;47.40;;;;;;5064276;28;20040;-81
2023/06/13 09:36:16;;;;;;;2.80;2.58;;;26.00;47.70;;;;;;5054164;28;20042;-80
2023/06/13 09:38:42;;;;;;;;;;;26.20;47.20;;;;;;5069230;28;20052;-85
2023/06/13 09:41:11;;;;;;;2.50;2.30;;;26.40;48.50;;;;;;5065826;28;19931;-81
2023/06/13 09:43:40;;;;;;;3.45;3.15;;;26.30;46.90;;;;;;5068393;28;20056;-81
2023/06/13 09:46:10;;;;;;;1.70;1.65;;;26.10;45.20;;;;;;5067377;28;20055;-81
2023/06/13 09:48:36;;;;;;;2.80;1.70;;;26.00;48.20;;;;;;5059910;28;20048;-81
2023/06/13 09:51:05;;;;;;;2.88;2.67;;;26.00;46.90;;;;;;5064049;28;20542;-81
2023/06/13 09:53:31;;;;;;;7.15;2.38;;;26.00;48.20;;;;;;5054251;28;20044;-81
2023/06/13 09:55:56;;;;;;;3.28;2.65;;;26.00;46.90;;;;;;5058305;28;20060;-81
2023/06/13 09:58:22;;;;;;;2.22;1.80;;;26.10;48.20;;;;;;5049670;28;20055;-80
2023/06/13 10:00:48;;;;;;;10.32;1.85;;;26.20;47.40;;;;;;5049407;28;20102;-83
2023/06/13 10:03:16;;;;;;;1.20;1.20;;;26.40;47.50;;;;;;5051232;28;20405;-81
2023/06/13 10:05:43;;;;;;;1.77;1.67;;;26.60;46.60;;;;;;5046415;28;20574;-80
2023/06/13 10:08:08;;;;;;;2.95;2.10;;;26.60;47.40;;;;;;5049819;28;20041;-79
2023/06/13 10:10:34;;;;;;;2.38;2.03;;;26.60;47.40;;;;;;5058103;28;20036;-82
2023/06/13 10:13:03;;;;;;;2.25;2.10;;;26.60;47.30;;;;;;5049823;28;20049;-79
2023/06/13 10:15:33;;;;;;;1.15;1.08;;;26.60;47.20;;;;;;5053345;28;20143;-79
2023/06/13 10:18:05;;;;;;;2.03;1.55;;;26.60;46.90;;;;;;5058497;28;21230;-81
2023/06/13 10:20:32;;;;;;;1.52;1.42;;;26.70;46.80;;;;;;5050476;28;20723;-81
2023/06/13 10:22:59;;;;;;;2.53;2.00;;;26.70;47.40;;;;;;5060124;28;20143;-81
2023/06/13 10:25:29;;;;;;;2.67;2.47;;;26.80;47.70;;;;;;5047878;28;20103;-80
2023/06/13 10:27:58;;;;;;;1.60;1.50;;;27.10;48.20;;;;;;5049193;28;20083;-84
2023/06/13 10:30:24;;;;;;;2.47;2.28;;;27.30;47.70;;;;;;5058504;28;20048;-80
2023/06/13 10:33:08;;;;;;;2.20;2.03;;;27.20;47.70;;;;;;5048739;28;20044;-79
2023/06/13 10:35:54;;;;;;;2.00;1.90;;;27.30;46.90;;;;;;5048784;28;20572;-80
2023/06/13 10:38:37;;;;;;;1.08;1.08;;;27.50;47.00;;;;;;5049761;28;20140;-80
2023/06/13 10:41:12;;;;;;;2.50;2.30;;;27.30;47.00;;;;;;5057881;28;20070;-81
2023/06/13 10:44:03;;;;;;;5.35;2.83;;;27.30;47.70;;;;;;5047237;28;20041;-81
2023/06/13 10:46:29;;;;;;;1.15;1.13;;;27.30;47.80;;;;;;5047130;28;20060;-83
2023/06/13 10:48:57;;;;;;;4.45;1.88;;;27.40;48.90;;;;;;5051864;28;20053;-82
2023/06/13 10:51:25;;;;;;;1.85;1.75;;;27.60;47.40;;;;;;5049819;28;20048;-83
2023/06/13 10:53:57;;;;;;;2.00;1.80;;;27.70;47.10;;;;;;5058272;28;20045;-84
2023/06/13 10:56:30;;;;;;;1.95;1.80;;;27.60;45.60;;;;;;5051628;28;20036;-84
2023/06/13 10:59:16;;;;;;;2.97;2.72;;;27.60;46.70;;;;;;5053452;28;20082;-83
2023/06/13 11:01:43;;;;;;;1.92;1.83;;;27.60;46.80;;;;;;5053152;28;20125;-83
2023/06/13 11:04:18;;;;;;;1.20;1.17;;;27.60;46.80;;;;;;5050359;28;20068;-82
2023/06/13 11:06:45;;;;;;;1.92;1.80;;;27.80;47.10;;;;;;5051071;28;20147;-81
2023/06/13 11:09:18;;;;;;;1.45;1.35;;;28.00;45.90;;;;;;5049627;28;20075;-84
2023/06/13 11:11:55;;;;;;;3.13;1.10;;;28.00;46.20;;;;;;5059029;28;20040;-82
2023/06/13 11:14:27;;;;;;;2.90;2.30;;;28.10;46.30;;;;;;5052305;28;20037;-83
2023/06/13 11:16:54;;;;;;;1.05;1.05;;;28.20;46.20;;;;;;5042881;28;20052;-82
2023/06/13 11:19:24;;;;;;;0.75;0.75;;;28.30;45.20;;;;;;5058140;28;20505;-84
2023/06/13 11:22:02;;;;;;;1.45;1.35;;;28.40;47.10;;;;;;5050391;28;20109;-85
2023/06/13 11:24:30;;;;;;;1.63;1.52;;;28.50;46.80;;;;;;5055660;28;20502;-85
2023/06/13 11:26:57;;;;;;;1.08;1.05;;;28.50;46.90;;;;;;5057385;28;20056;-88
2023/06/13 11:30:20;;;;;;;0.75;0.75;;;28.60;46.60;;;;;;5057825;28;21074;-86
2023/06/13 11:32:47;;;;;;;1.75;1.65;;;28.70;46.50;;;;;;5052055;28;20481;-85
2023/06/13 11:35:18;;;;;;;1.65;1.55;;;28.70;46.20;;;;;;5048969;28;20049;-85
2023/06/13 11:37:56;;;;;;;2.17;1.27;;;28.70;45.00;;;;;;5053767;28;20040;-87
2023/06/13 11:40:34;;;;;;;3.35;3.15;;;28.50;46.20;;;;;;5052121;28;20102;-85
2023/06/13 11:43:00;;;;;;;2.00;1.40;;;28.30;45.40;;;;;;5051472;28;20079;-86
2023/06/13 11:45:26;;;;;;;2.35;2.15;;;28.40;46.80;;;;;;5050177;28;20128;-83
2023/06/13 11:48:03;;;;;;;1.10;1.10;;;28.40;46.30;;;;;;5049395;28;20044;-83
2023/06/13 11:50:29;;;;;;;;;;;28.50;45.60;;;;;;5048509;28;20044;-85
2023/06/13 11:53:04;;;;;;;2.40;1.85;;;28.50;45.90;;;;;;5053553;28;19981;-87
2023/06/13 11:55:30;;;;;;;1.90;1.80;;;28.40;46.00;;;;;;5053123;28;20055;-85
2023/06/13 11:57:57;;;;;;;2.10;2.00;;;28.30;45.00;;;;;;5053175;28;20044;-85
2023/06/13 12:00:26;;;;;;;1.27;1.23;;;28.30;44.30;;;;;;5058719;28;20041;-85
2023/06/13 12:02:52;;;;;;;1.65;1.55;;;28.20;44.00;;;;;;5056274;28;20805;-84
2023/06/13 12:05:18;;;;;;;1.67;1.57;;;28.30;45.20;;;;;;5057849;28;20085;-87
2023/06/13 12:07:45;;;;;;;2.70;2.50;;;28.50;44.20;;;;;;5055692;28;20387;-87
2023/06/13 12:10:15;;;;;;;1.55;1.45;;;28.60;44.50;;;;;;5060578;28;20036;-86
2023/06/13 12:12:41;;;;;;;1.60;1.15;;;28.70;44.40;;;;;;5051140;28;20624;-85
2023/06/13 12:15:13;;;;;;;1.98;1.67;;;28.90;44.60;;;;;;5053886;28;21623;-86
2023/06/13 12:18:02;;;;;;;1.60;1.50;;;29.00;46.60;;;;;;5057967;28;20131;-85
2023/06/13 12:20:28;;;;;;;1.15;1.10;;;28.90;45.00;;;;;;5060110;28;20522;-82
2023/06/13 12:22:59;;;;;;;1.17;1.17;;;28.70;44.90;;;;;;5053810;28;20577;-84
2023/06/13 12:25:27;;;;;;;1.17;1.13;;;28.90;46.40;;;;;;5043890;28;20052;-87
2023/06/13 12:28:01;;;;;;;3.28;2.72;;;28.80;44.90;;;;;;5053491;28;20560;-87
2023/06/13 12:30:35;;;;;;;1.75;1.65;;;28.70;44.90;;;;;;5055644;28;20122;-86
2023/06/13 12:33:01;;;;;;;2.03;1.92;;;28.40;44.60;;;;;;5037063;28;20045;-83
2023/06/13 12:35:29;;;;;;;3.40;1.75;;;28.20;45.50;;;;;;5054053;28;20040;-84
2023/06/13 12:38:01;;;;;;;4.60;2.42;;;28.30;46.20;;;;;;5054615;28;20043;-85
2023/06/13 12:40:35;;;;;;;2.72;2.53;;;28.40;44.70;;;;;;5051975;28;20049;-84
2023/06/13 12:43:02;;;;;;;3.97;1.65;;;28.50;45.70;;;;;;5050164;28;20049;-83
2023/06/13 12:45:29;;;;;;;1.73;1.63;;;28.70;45.10;;;;;;5045909;28;20087;-85
2023/06/13 12:47:56;;;;;;;1.80;1.70;;;29.00;47.20;;;;;;5053817;28;20052;-84
2023/06/13 12:50:26;;;;;;;1.95;1.85;;;28.80;45.40;;;;;;5054491;28;20045;-82
2023/06/13 12:53:02;;;;;;;0.88;0.88;;;28.60;45.60;;;;;;5059033;28;20056;-87